EmailTwitter


Observations de surface / France / LFMK (07635)

Régions: Québec | Canada | États-Unis | Europe | France | UK | Ailleurs
Station
Affichage
Infos & localisation pour LFMK (07635) | Aide pour décoder les METARs

Observations prises le 2019-09-22 à 18H30 UTC à CARCASSONNE/SALV, FR (LFMK)

Etat du ciel: couvert.

Température: 16.0 Celsius

Point de rosée: 13.0 Celsius

Humidité relative: 82%

Vents: Ouest à 9 km/h ou 5 noeuds.

Pression au niveau moyen de la mer: 101.60 kilopascals.

Visibilité horizontale: 6.21 milles terrestres ou 9.94 kilomètres.

Hauteur du plafond: 1250 mètres ( 4100 pieds ).

Observation METAR:

LFMK 221830Z AUTO 26005KT 220V290 9999 BKN041 BKN047 OVC076 16/13 Q1016=